createdAt,value
2023-04-25T00:00:21.273Z,37.15
2023-04-25T00:01:21.282Z,37.06
2023-04-25T00:02:21.338Z,37.15
2023-04-25T00:03:21.427Z,36.77
2023-04-25T00:04:21.420Z,36.57
2023-04-25T00:05:21.401Z,36.57
2023-04-25T00:06:21.283Z,36.38
2023-04-25T00:07:21.276Z,36.67
2023-04-25T00:08:21.289Z,37.06
2023-04-25T00:09:21.286Z,37.15
2023-04-25T00:10:21.300Z,36.87
2023-04-25T00:11:21.288Z,36.77
2023-04-25T00:12:21.289Z,36.87
2023-04-25T00:13:21.289Z,37.63
2023-04-25T00:14:21.296Z,37.54
2023-04-25T00:15:21.322Z,36.96
2023-04-25T00:16:21.355Z,37.06
2023-04-25T00:17:21.375Z,37.15
2023-04-25T00:18:21.304Z,37.54
2023-04-25T00:19:21.306Z,37.93
2023-04-25T00:20:21.319Z,37.73
2023-04-25T00:21:21.313Z,37.06
2023-04-25T00:22:21.319Z,37.06
2023-04-25T00:23:21.317Z,37.06
2023-04-25T00:24:21.319Z,36.96
2023-04-25T00:25:21.340Z,37.45
2023-04-25T00:26:21.373Z,36.57
2023-04-25T00:27:21.327Z,36.57
2023-04-25T00:28:21.338Z,37.63
2023-04-25T00:29:21.334Z,36.77
2023-04-25T00:30:21.330Z,37.45
2023-04-25T00:31:21.385Z,37.15
2023-04-25T00:32:21.337Z,37.15
2023-04-25T00:33:21.334Z,37.15
2023-04-25T00:34:21.339Z,36.87
2023-04-25T00:35:21.345Z,37.06
2023-04-25T00:36:21.391Z,37.73
2023-04-25T00:37:21.349Z,37.45
2023-04-25T00:38:21.351Z,37.73
2023-04-25T00:39:21.357Z,36.96
2023-04-25T00:40:21.355Z,36.87
2023-04-25T00:41:21.508Z,36.87
2023-04-25T00:42:21.371Z,37.15
2023-04-25T00:43:21.367Z,37.45
2023-04-25T00:44:21.360Z,37.54
2023-04-25T00:45:21.366Z,36.87
2023-04-25T00:46:21.447Z,36.87
2023-04-25T00:47:21.398Z,36.77
2023-04-25T00:48:21.374Z,37.45
2023-04-25T00:49:21.372Z,37.93
2023-04-25T00:50:21.376Z,37.83
2023-04-25T00:51:21.383Z,36.96
2023-04-25T00:52:21.389Z,37.54
2023-04-25T00:53:21.395Z,37.15
2023-04-25T00:54:21.388Z,37.45
2023-04-25T00:55:21.401Z,37.63
2023-04-25T00:56:21.412Z,36.67
2023-04-25T00:57:21.391Z,37.06
2023-04-25T00:58:21.407Z,36.96
2023-04-25T00:59:21.402Z,37.06
2023-04-25T01:00:21.434Z,37.63
2023-04-25T01:01:21.645Z,37.06
2023-04-25T01:02:21.478Z,36.96
2023-04-25T01:03:21.607Z,37.45
2023-04-25T01:04:21.536Z,37.25
2023-04-25T01:05:21.419Z,36.67
2023-04-25T01:06:21.414Z,36.67
2023-04-25T01:07:21.416Z,36.87
2023-04-25T01:08:21.423Z,37.35
2023-04-25T01:09:21.432Z,36.87
2023-04-25T01:10:21.426Z,37.54
2023-04-25T01:11:21.429Z,36.57
2023-04-25T01:12:21.448Z,37.15
2023-04-25T01:13:21.436Z,37.54
2023-04-25T01:14:21.433Z,36.87
2023-04-25T01:15:21.439Z,37.63
2023-04-25T01:16:21.517Z,37.73
2023-04-25T01:17:21.438Z,36.77
2023-04-25T01:18:21.449Z,36.67
2023-04-25T01:19:21.468Z,36.87
2023-04-25T01:20:21.447Z,37.73
2023-04-25T01:21:21.458Z,36.48
2023-04-25T01:22:21.451Z,37.54
2023-04-25T01:23:21.459Z,36.96
2023-04-25T01:24:21.457Z,37.45
2023-04-25T01:25:21.467Z,36.77
2023-04-25T01:26:21.466Z,37.73
2023-04-25T01:27:21.467Z,37.73
2023-04-25T01:28:21.462Z,37.63
2023-04-25T01:29:21.469Z,37.93
2023-04-25T01:30:21.472Z,37.54
2023-04-25T01:31:21.681Z,37.93
2023-04-25T01:32:21.555Z,37.06
2023-04-25T01:33:21.485Z,37.06
2023-04-25T01:34:21.488Z,37.73
2023-04-25T01:35:21.504Z,37.63
2023-04-25T01:36:21.490Z,37.45
2023-04-25T01:37:21.493Z,37.73
2023-04-25T01:38:21.489Z,37.45
2023-04-25T01:39:21.500Z,37.15
2023-04-25T01:40:21.493Z,37.63
2023-04-25T01:41:22.614Z,36.77
2023-04-25T01:42:21.498Z,37.45
2023-04-25T01:43:21.504Z,36.96
2023-04-25T01:44:21.509Z,36.87
2023-04-25T01:45:21.539Z,37.73
2023-04-25T01:46:21.565Z,37.54
2023-04-25T01:47:21.547Z,37.63
2023-04-25T01:48:21.538Z,37.63
2023-04-25T01:49:21.517Z,37.63
2023-04-25T01:50:21.520Z,37.83
2023-04-25T01:51:21.554Z,36.96
2023-04-25T01:52:21.563Z,37.54
2023-04-25T01:53:21.524Z,37.45
2023-04-25T01:54:21.524Z,37.54
2023-04-25T01:55:21.530Z,37.63
2023-04-25T01:56:21.532Z,37.63
2023-04-25T01:57:21.551Z,37.35
2023-04-25T01:58:21.535Z,37.73
2023-04-25T01:59:21.540Z,37.83
2023-04-25T02:00:21.540Z,37.63
2023-04-25T02:01:21.595Z,37.45
2023-04-25T02:02:21.629Z,37.73
2023-04-25T02:03:21.738Z,37.83
2023-04-25T02:04:21.630Z,37.73
2023-04-25T02:05:21.554Z,37.93
2023-04-25T02:06:21.558Z,37.35
2023-04-25T02:07:21.596Z,37.63
2023-04-25T02:08:21.558Z,37.83
2023-04-25T02:09:21.558Z,37.54
2023-04-25T02:10:21.570Z,37.93
2023-04-25T02:11:21.561Z,38.02
2023-04-25T02:12:21.566Z,38.12
2023-04-25T02:13:21.569Z,38.12
2023-04-25T02:14:21.572Z,37.45
2023-04-25T02:15:21.577Z,38.02
2023-04-25T02:16:21.682Z,37.73
2023-04-25T02:17:21.586Z,37.83
2023-04-25T02:18:21.651Z,37.93
2023-04-25T02:19:21.585Z,37.93
2023-04-25T02:20:21.590Z,38.12
2023-04-25T02:21:21.591Z,38.21
2023-04-25T02:22:21.588Z,38.21
2023-04-25T02:23:21.628Z,38.12
2023-04-25T02:24:21.606Z,37.83
2023-04-25T02:25:21.610Z,38.12
2023-04-25T02:26:21.602Z,37.83
2023-04-25T02:27:21.598Z,38.21
2023-04-25T02:28:21.608Z,37.93
2023-04-25T02:29:21.612Z,38.12
2023-04-25T02:30:21.607Z,37.93
2023-04-25T02:31:21.663Z,38.51
2023-04-25T02:32:21.656Z,38.21
2023-04-25T02:33:21.625Z,38.21
2023-04-25T02:34:21.622Z,38.12
2023-04-25T02:35:21.615Z,38.02
2023-04-25T02:36:21.638Z,38.21
2023-04-25T02:37:21.627Z,38.89
2023-04-25T02:38:21.626Z,38.31
2023-04-25T02:39:21.662Z,38.12
2023-04-25T02:40:21.644Z,38.41
2023-04-25T02:41:21.657Z,38.12
2023-04-25T02:42:21.649Z,38.31
2023-04-25T02:43:21.648Z,37.73
2023-04-25T02:44:21.661Z,38.31
2023-04-25T02:45:21.644Z,38.51
2023-04-25T02:46:32.156Z,38.12
2023-04-25T02:47:21.789Z,38.41
2023-04-25T02:48:21.657Z,38.51
2023-04-25T02:49:21.650Z,37.83
2023-04-25T02:50:21.652Z,38.31
2023-04-25T02:51:21.658Z,38.41
2023-04-25T02:52:21.659Z,38.31
2023-04-25T02:53:21.667Z,37.93
2023-04-25T02:54:21.670Z,38.12
2023-04-25T02:55:21.693Z,38.21
2023-04-25T02:56:21.825Z,38.21
2023-04-25T02:57:21.668Z,37.83
2023-04-25T02:58:21.681Z,37.93
2023-04-25T02:59:21.685Z,38.21
2023-04-25T03:00:21.686Z,38.41
2023-04-25T03:01:21.794Z,38.02
2023-04-25T03:02:21.766Z,38.12
2023-04-25T03:03:21.882Z,38.41
2023-04-25T03:04:21.743Z,38.31
2023-04-25T03:05:21.701Z,37.63
2023-04-25T03:06:21.843Z,38.12
2023-04-25T03:07:21.690Z,38.12
2023-04-25T03:08:21.714Z,37.93
2023-04-25T03:09:21.705Z,38.12
2023-04-25T03:10:21.708Z,38.41
2023-04-25T03:11:21.722Z,37.83
2023-04-25T03:12:21.712Z,38.31
2023-04-25T03:13:21.708Z,38.41
2023-04-25T03:14:21.719Z,38.31
2023-04-25T03:15:21.707Z,37.93
2023-04-25T03:16:21.737Z,37.93
2023-04-25T03:17:21.770Z,38.21
2023-04-25T03:18:21.717Z,37.93
2023-04-25T03:19:21.767Z,37.93
2023-04-25T03:20:21.724Z,37.83
2023-04-25T03:21:21.762Z,38.02
2023-04-25T03:22:21.742Z,38.21
2023-04-25T03:23:21.737Z,37.73
2023-04-25T03:24:21.767Z,38.41
2023-04-25T03:25:21.731Z,38.02
2023-04-25T03:26:21.736Z,38.02
2023-04-25T03:27:21.758Z,38.51
2023-04-25T03:28:21.747Z,38.31
2023-04-25T03:29:21.745Z,38.02
2023-04-25T03:30:21.744Z,38.02
2023-04-25T03:31:22.074Z,38.02
2023-04-25T03:32:21.933Z,38.21
2023-04-25T03:33:21.755Z,38.51
2023-04-25T03:34:21.756Z,38.02
2023-04-25T03:35:21.767Z,37.83
2023-04-25T03:36:21.932Z,38.41
2023-04-25T03:37:21.766Z,38.31
2023-04-25T03:38:21.763Z,37.93
2023-04-25T03:39:21.778Z,38.31
2023-04-25T03:40:21.764Z,38.21
2023-04-25T03:41:21.769Z,38.12
2023-04-25T03:42:21.772Z,38.21
2023-04-25T03:43:21.797Z,38.12
2023-04-25T03:44:21.775Z,37.93
2023-04-25T03:45:21.790Z,38.31
2023-04-25T03:46:21.869Z,37.93
2023-04-25T03:47:21.870Z,37.93
2023-04-25T03:48:21.787Z,38.41
2023-04-25T03:49:21.784Z,38.02
2023-04-25T03:50:21.795Z,38.21
2023-04-25T03:51:21.789Z,38.02
2023-04-25T03:52:21.796Z,38.31
2023-04-25T03:53:21.796Z,38.31
2023-04-25T03:54:21.802Z,38.31
2023-04-25T03:55:21.803Z,38.41
2023-04-25T03:56:21.803Z,38.31
2023-04-25T03:57:21.807Z,37.93
2023-04-25T03:58:21.813Z,38.21
2023-04-25T03:59:21.831Z,38.02
2023-04-25T04:00:21.811Z,38.12
2023-04-25T04:01:21.812Z,38.02
2023-04-25T04:02:21.882Z,37.83
2023-04-25T04:03:22.114Z,37.93
2023-04-25T04:04:22.151Z,38.21
2023-04-25T04:05:21.889Z,37.83
2023-04-25T04:06:21.826Z,37.73
2023-04-25T04:07:21.829Z,38.21
2023-04-25T04:08:21.843Z,38.02
2023-04-25T04:09:21.829Z,38.21
2023-04-25T04:10:21.842Z,37.93
2023-04-25T04:11:21.833Z,38.02
2023-04-25T04:12:21.842Z,38.51
2023-04-25T04:13:21.841Z,38.41
2023-04-25T04:14:21.853Z,37.93
2023-04-25T04:15:21.877Z,38.31
2023-04-25T04:16:21.882Z,38.02
2023-04-25T04:17:21.861Z,38.41
2023-04-25T04:18:21.867Z,38.12
2023-04-25T04:19:21.867Z,38.31
2023-04-25T04:20:21.859Z,38.51
2023-04-25T04:21:21.905Z,38.12
2023-04-25T04:22:21.863Z,38.41
2023-04-25T04:23:21.885Z,38.21
2023-04-25T04:24:21.866Z,38.21
2023-04-25T04:25:21.868Z,38.99
2023-04-25T04:26:21.871Z,38.89
2023-04-25T04:27:21.875Z,38.79
2023-04-25T04:28:21.874Z,38.89
2023-04-25T04:29:21.982Z,38.99
2023-04-25T04:30:21.881Z,39.18
2023-04-25T04:31:21.950Z,39.09
2023-04-25T04:32:21.907Z,38.60
2023-04-25T04:33:21.884Z,39.09
2023-04-25T04:34:21.898Z,39.18
2023-04-25T04:35:21.896Z,38.89
2023-04-25T04:36:21.886Z,38.31
2023-04-25T04:37:21.901Z,38.41
2023-04-25T04:38:21.916Z,38.31
2023-04-25T04:39:21.910Z,38.31
2023-04-25T04:40:21.904Z,38.70
2023-04-25T04:41:21.962Z,38.51
2023-04-25T04:42:21.903Z,38.60
2023-04-25T04:43:21.912Z,38.89
2023-04-25T04:44:21.912Z,38.70
2023-04-25T04:45:21.914Z,38.89
2023-04-25T04:46:21.934Z,39.09
2023-04-25T04:47:22.068Z,39.09
2023-04-25T04:48:21.919Z,39.09
2023-04-25T04:49:21.917Z,38.51
2023-04-25T04:50:21.950Z,38.70
2023-04-25T04:51:21.984Z,38.21
2023-04-25T04:52:21.939Z,38.51
2023-04-25T04:53:21.957Z,38.99
2023-04-25T04:54:21.934Z,39.18
2023-04-25T04:55:21.937Z,38.89
2023-04-25T04:56:21.961Z,39.09
2023-04-25T04:57:21.940Z,38.79
2023-04-25T04:58:21.950Z,38.99
2023-04-25T04:59:21.955Z,39.28
2023-04-25T05:00:21.988Z,39.76
2023-04-25T05:01:22.032Z,39.66
2023-04-25T05:02:22.052Z,39.86
2023-04-25T05:03:22.113Z,39.57
2023-04-25T05:04:22.071Z,39.95
2023-04-25T05:05:21.957Z,39.95
2023-04-25T05:06:21.970Z,40.05
2023-04-25T05:07:21.986Z,39.86
2023-04-25T05:08:21.963Z,40.44
2023-04-25T05:09:21.980Z,40.05
2023-04-25T05:10:21.967Z,39.95
2023-04-25T05:11:21.976Z,40.05
2023-04-25T05:12:21.980Z,39.95
2023-04-25T05:13:21.978Z,39.86
2023-04-25T05:14:21.975Z,39.76
2023-04-25T05:15:21.975Z,40.15
2023-04-25T05:16:22.024Z,39.97
2023-04-25T05:17:22.097Z,39.66
2023-04-25T05:18:23.661Z,39.95
2023-04-25T05:19:22.023Z,39.87
2023-04-25T05:20:21.992Z,40.05
2023-04-25T05:21:22.005Z,39.87
2023-04-25T05:22:21.995Z,39.97
2023-04-25T05:23:21.996Z,40.05
2023-04-25T05:24:22.000Z,40.05
2023-04-25T05:25:22.005Z,40.07
2023-04-25T05:26:22.039Z,39.87
2023-04-25T05:27:22.015Z,39.97
2023-04-25T05:28:22.006Z,39.57
2023-04-25T05:29:22.008Z,39.95
2023-04-25T05:30:22.012Z,40.15
2023-04-25T05:31:22.094Z,39.69
2023-04-25T05:32:22.218Z,39.76
2023-04-25T05:33:22.029Z,39.95
2023-04-25T05:34:22.031Z,39.59
2023-04-25T05:35:22.117Z,39.69
2023-04-25T05:36:22.028Z,39.39
2023-04-25T05:37:22.051Z,40.24
2023-04-25T05:38:22.037Z,39.66
2023-04-25T05:39:22.040Z,40.15
2023-04-25T05:40:22.030Z,39.66
2023-04-25T05:41:22.192Z,39.37
2023-04-25T05:42:22.051Z,39.59
2023-04-25T05:43:22.043Z,39.49
2023-04-25T05:44:22.040Z,39.66
2023-04-25T05:45:22.046Z,39.59
2023-04-25T05:46:22.070Z,39.69
2023-04-25T05:47:22.046Z,39.66
2023-04-25T05:48:22.047Z,39.49
2023-04-25T05:49:22.062Z,39.57
2023-04-25T05:50:22.051Z,39.59
2023-04-25T05:51:22.079Z,39.47
2023-04-25T05:52:22.068Z,39.66
2023-04-25T05:53:22.061Z,39.78
2023-04-25T05:54:22.062Z,39.59
2023-04-25T05:55:22.084Z,39.59
2023-04-25T05:56:22.124Z,39.76
2023-04-25T05:57:22.070Z,39.47
2023-04-25T05:58:22.077Z,39.57
2023-04-25T05:59:22.073Z,40.07
2023-04-25T06:00:22.076Z,40.17
2023-04-25T06:01:22.081Z,39.57
2023-04-25T06:02:22.176Z,39.59
2023-04-25T06:03:22.309Z,39.59
2023-04-25T06:04:22.318Z,39.69
2023-04-25T06:05:22.262Z,39.69
2023-04-25T06:06:22.098Z,39.69
2023-04-25T06:07:22.144Z,39.20
2023-04-25T06:08:22.100Z,39.49
2023-04-25T06:09:22.094Z,39.59
2023-04-25T06:10:22.217Z,39.66
2023-04-25T06:11:22.111Z,39.09
2023-04-25T06:12:22.117Z,39.18
2023-04-25T06:13:22.105Z,39.69
2023-04-25T06:14:22.294Z,39.78
2023-04-25T06:16:22.157Z,39.37
2023-04-25T06:17:22.130Z,39.57
2023-04-25T06:18:22.191Z,39.59
2023-04-25T06:19:22.128Z,39.69
2023-04-25T06:20:22.140Z,39.59
2023-04-25T06:21:22.124Z,39.66
2023-04-25T06:22:22.155Z,39.97
2023-04-25T06:23:22.153Z,40.26
2023-04-25T06:24:22.125Z,39.69
2023-04-25T06:25:22.283Z,39.66
2023-04-25T06:26:22.134Z,39.49
2023-04-25T06:27:22.135Z,39.69
2023-04-25T06:28:22.139Z,39.59
2023-04-25T06:29:22.143Z,39.87
2023-04-25T06:30:22.187Z,39.97
2023-04-25T06:31:22.222Z,40.05
2023-04-25T06:32:22.278Z,39.87
2023-04-25T06:33:22.157Z,39.69
2023-04-25T06:34:22.153Z,39.59
2023-04-25T06:35:22.187Z,39.49
2023-04-25T06:36:22.157Z,39.59
2023-04-25T06:37:22.161Z,39.39
2023-04-25T06:38:22.171Z,40.07
2023-04-25T06:39:22.199Z,40.17
2023-04-25T06:40:22.189Z,40.17
2023-04-25T06:41:22.179Z,39.39
2023-04-25T06:42:22.194Z,39.78
2023-04-25T06:43:22.275Z,40.07
2023-04-25T06:44:22.184Z,39.87
2023-04-25T06:45:22.276Z,40.05
2023-04-25T06:46:22.186Z,39.86
2023-04-25T06:47:22.248Z,40.05
2023-04-25T06:48:22.201Z,40.80
2023-04-25T06:49:22.191Z,41.02
2023-04-25T06:50:22.188Z,40.15
2023-04-25T06:51:24.206Z,40.34
2023-04-25T06:52:22.194Z,40.63
2023-04-25T06:53:22.206Z,40.82
2023-04-25T06:54:22.209Z,40.24
2023-04-25T06:55:22.228Z,39.86
2023-04-25T06:56:22.234Z,40.24
2023-04-25T06:57:22.210Z,39.86
2023-04-25T06:58:22.217Z,39.95
2023-04-25T06:59:22.231Z,39.95
2023-04-25T07:00:22.212Z,39.86
2023-04-25T07:01:22.261Z,39.78
2023-04-25T07:02:22.273Z,39.57
2023-04-25T07:03:22.585Z,39.57
2023-04-25T07:04:22.524Z,39.69
2023-04-25T07:05:22.226Z,39.59
2023-04-25T07:06:22.266Z,39.59
2023-04-25T07:07:22.230Z,39.57
2023-04-25T07:08:22.292Z,39.66
2023-04-25T07:09:22.244Z,39.97
2023-04-25T07:10:22.266Z,39.97
2023-04-25T07:11:22.269Z,40.07
2023-04-25T07:12:22.247Z,39.49
2023-04-25T07:13:22.322Z,39.59
2023-04-25T07:14:22.262Z,39.59
2023-04-25T07:15:22.256Z,39.69
2023-04-25T07:16:22.371Z,39.69
2023-04-25T07:17:22.258Z,39.69
2023-04-25T07:18:22.497Z,39.59
2023-04-25T07:19:22.267Z,39.69
2023-04-25T07:20:22.273Z,39.59
2023-04-25T07:21:22.274Z,39.69
2023-04-25T07:22:22.371Z,40.24
2023-04-25T07:23:22.279Z,39.69
2023-04-25T07:24:22.280Z,39.69
2023-04-25T07:25:22.303Z,40.07
2023-04-25T07:26:22.282Z,39.59
2023-04-25T07:27:22.304Z,39.59
2023-04-25T07:28:22.367Z,39.97
2023-04-25T07:29:22.344Z,39.87
2023-04-25T07:30:22.312Z,39.49
2023-04-25T07:31:22.321Z,39.49
2023-04-25T07:32:22.361Z,39.49
2023-04-25T07:33:22.303Z,39.39
2023-04-25T07:34:22.311Z,39.59
2023-04-25T07:35:22.315Z,39.69
2023-04-25T07:36:22.308Z,39.20
2023-04-25T07:37:22.363Z,39.20
2023-04-25T07:38:22.307Z,39.69
2023-04-25T07:39:22.321Z,39.59
2023-04-25T07:40:22.314Z,39.59
2023-04-25T07:41:22.320Z,39.11
2023-04-25T07:42:22.344Z,39.11
2023-04-25T07:43:22.416Z,38.71
2023-04-25T07:44:22.354Z,38.91
2023-04-25T07:45:22.329Z,38.62
2023-04-25T07:46:22.432Z,38.91
2023-04-25T07:47:22.347Z,39.20
2023-04-25T07:48:22.344Z,39.20
2023-04-25T07:49:22.340Z,38.71
2023-04-25T07:50:22.340Z,39.29
2023-04-25T07:51:22.340Z,39.49
2023-04-25T07:52:22.365Z,39.11
2023-04-25T07:53:22.396Z,39.20
2023-04-25T07:54:22.349Z,38.71
2023-04-25T07:55:22.351Z,39.01
2023-04-25T07:56:22.361Z,38.71
2023-04-25T07:57:22.356Z,38.62
2023-04-25T07:58:22.405Z,38.81
2023-04-25T07:59:22.384Z,38.91
2023-04-25T08:00:22.369Z,38.81
2023-04-25T08:01:22.368Z,38.71
2023-04-25T08:02:22.430Z,39.01
2023-04-25T08:03:22.828Z,38.81
2023-04-25T08:04:22.519Z,38.91
2023-04-25T08:05:23.096Z,38.81
2023-04-25T08:06:22.619Z,38.81
2023-04-25T08:07:22.385Z,39.39
2023-04-25T08:08:22.380Z,39.01
2023-04-25T08:09:22.415Z,38.91
2023-04-25T08:10:22.698Z,38.71
2023-04-25T08:11:22.406Z,38.62
2023-04-25T08:12:23.538Z,39.01
2023-04-25T08:13:22.403Z,38.81
2023-04-25T08:14:22.401Z,38.71
2023-04-25T08:15:22.428Z,39.11
2023-04-25T08:16:22.522Z,38.91
2023-04-25T08:17:22.427Z,38.91
2023-04-25T08:18:22.491Z,39.01
2023-04-25T08:19:22.429Z,38.91
2023-04-25T08:20:22.509Z,38.81
2023-04-25T08:21:22.423Z,38.91
2023-04-25T08:22:22.430Z,38.71
2023-04-25T08:23:22.443Z,39.39
2023-04-25T08:24:22.430Z,39.29
2023-04-25T08:25:22.435Z,39.29
2023-04-25T08:26:22.437Z,39.69
2023-04-25T08:27:22.442Z,39.69
2023-04-25T08:28:22.449Z,39.49
2023-04-25T08:29:22.443Z,39.69
2023-04-25T08:30:22.702Z,39.49
2023-04-25T08:31:22.536Z,39.11
2023-04-25T08:32:22.456Z,39.01
2023-04-25T08:33:22.544Z,39.69
2023-04-25T08:34:22.455Z,39.29
2023-04-25T08:35:22.463Z,39.11
2023-04-25T08:36:37.909Z,38.91
2023-04-25T08:37:22.467Z,39.29
2023-04-25T08:38:22.468Z,39.49
2023-04-25T08:39:22.473Z,39.49
2023-04-25T08:40:22.486Z,39.69
2023-04-25T08:41:22.475Z,39.49
2023-04-25T08:42:22.545Z,39.11
2023-04-25T08:43:22.481Z,39.69
2023-04-25T08:44:22.712Z,39.20
2023-04-25T08:45:22.485Z,39.11
2023-04-25T08:46:22.491Z,38.81
2023-04-25T08:47:22.554Z,39.11
2023-04-25T08:48:22.493Z,39.59
2023-04-25T08:49:22.488Z,38.62
2023-04-25T08:50:22.506Z,39.20
2023-04-25T08:51:23.211Z,39.20
2023-04-25T08:52:22.503Z,39.20
2023-04-25T08:53:22.787Z,38.91
2023-04-25T08:54:34.486Z,39.29
2023-04-25T08:55:22.557Z,39.11
2023-04-25T08:56:22.515Z,39.20
2023-04-25T08:57:22.536Z,38.71
2023-04-25T08:58:22.528Z,38.71
2023-04-25T08:59:22.519Z,39.01
2023-04-25T09:00:22.523Z,38.91
2023-04-25T09:01:22.580Z,39.11
2023-04-25T09:02:22.704Z,38.83
2023-04-25T09:03:22.869Z,39.22
2023-04-25T09:04:22.640Z,38.83
2023-04-25T09:05:22.553Z,38.74
2023-04-25T09:06:22.629Z,39.01
2023-04-25T09:07:22.594Z,39.11
2023-04-25T09:08:22.561Z,38.83
2023-04-25T09:09:22.554Z,38.83
2023-04-25T09:10:22.554Z,38.83
2023-04-25T09:11:23.592Z,38.81
2023-04-25T09:12:22.557Z,39.11
2023-04-25T09:13:22.707Z,38.62
2023-04-25T09:14:22.959Z,38.81
2023-04-25T09:15:22.563Z,38.93
2023-04-25T09:16:22.668Z,38.91
2023-04-25T09:17:22.576Z,38.71
2023-04-25T09:18:29.883Z,39.20
2023-04-25T09:19:28.368Z,38.81
2023-04-25T09:20:22.584Z,39.11
2023-04-25T09:21:22.603Z,38.71
2023-04-25T09:22:22.592Z,38.71
2023-04-25T09:23:22.587Z,38.91
2023-04-25T09:24:22.591Z,38.71
2023-04-25T09:25:22.589Z,39.01
2023-04-25T09:26:22.592Z,38.62
2023-04-25T09:27:22.595Z,39.29
2023-04-25T09:28:22.686Z,38.81
2023-04-25T09:29:22.609Z,38.71
2023-04-25T09:30:22.605Z,39.41
2023-04-25T09:31:22.655Z,38.71
2023-04-25T09:32:22.721Z,38.81
2023-04-25T09:33:22.817Z,38.91
2023-04-25T09:34:22.641Z,38.91
2023-04-25T09:35:22.658Z,38.71
2023-04-25T09:36:22.624Z,39.20
2023-04-25T09:37:22.636Z,38.71
2023-04-25T09:38:22.624Z,39.12
2023-04-25T09:39:22.667Z,39.01
2023-04-25T09:40:22.633Z,39.11
2023-04-25T09:41:22.641Z,39.11
2023-04-25T09:42:22.637Z,39.11
2023-04-25T09:43:22.685Z,38.91
2023-04-25T09:44:22.762Z,38.91
2023-04-25T09:45:22.645Z,39.11
2023-04-25T09:46:22.681Z,39.01
2023-04-25T09:47:22.733Z,38.93
2023-04-25T09:48:22.698Z,38.91
2023-04-25T09:49:22.682Z,39.29
2023-04-25T09:50:22.667Z,39.11
2023-04-25T09:51:22.718Z,39.11
2023-04-25T09:52:25.174Z,38.53
2023-04-25T09:53:22.720Z,38.71
2023-04-25T09:54:22.674Z,38.91
2023-04-25T09:55:22.685Z,39.01
2023-04-25T09:56:22.685Z,38.91
2023-04-25T09:57:22.691Z,39.01
2023-04-25T09:58:22.686Z,38.43
2023-04-25T09:59:22.705Z,39.11
2023-04-25T10:00:22.692Z,38.43
2023-04-25T10:01:22.799Z,39.01
2023-04-25T10:02:22.715Z,39.01
2023-04-25T10:03:22.814Z,38.43
2023-04-25T10:04:22.807Z,38.33
2023-04-25T10:05:22.727Z,38.43
2023-04-25T10:06:22.743Z,38.33
2023-04-25T10:07:22.738Z,38.43
2023-04-25T10:08:22.713Z,38.23
2023-04-25T10:09:22.725Z,39.39
2023-04-25T10:10:22.726Z,39.01
2023-04-25T10:11:22.725Z,38.83
2023-04-25T10:12:22.726Z,38.45
2023-04-25T10:13:22.724Z,38.45
2023-04-25T10:14:22.795Z,38.33
2023-04-25T10:15:22.751Z,38.43
2023-04-25T10:16:22.839Z,38.35
2023-04-25T10:17:22.741Z,38.16
2023-04-25T10:18:22.740Z,38.25
2023-04-25T10:19:22.747Z,38.35
2023-04-25T10:20:22.746Z,38.06
2023-04-25T10:21:22.755Z,38.35
2023-04-25T10:22:22.752Z,38.25
2023-04-25T10:23:22.797Z,38.16
2023-04-25T10:24:22.754Z,37.77
2023-04-25T10:25:22.760Z,38.45
2023-04-25T10:26:22.765Z,38.16
2023-04-25T10:27:22.765Z,38.25
2023-04-25T10:28:22.775Z,38.25
2023-04-25T10:29:22.770Z,38.35
2023-04-25T10:30:22.772Z,38.35
2023-04-25T10:31:22.873Z,38.25
2023-04-25T10:32:22.916Z,38.35
2023-04-25T10:33:22.774Z,37.96
2023-04-25T10:34:22.779Z,38.25
2023-04-25T10:35:22.781Z,38.45
2023-04-25T10:36:22.798Z,38.35
2023-04-25T10:37:22.794Z,39.22
2023-04-25T10:38:22.801Z,38.54
2023-04-25T10:39:22.942Z,38.74
2023-04-25T10:40:22.803Z,38.64
2023-04-25T10:41:22.814Z,38.45
2023-04-25T10:42:22.814Z,38.45
2023-04-25T10:43:22.813Z,38.25
2023-04-25T10:44:22.815Z,38.54
2023-04-25T10:45:22.820Z,38.93
2023-04-25T10:46:22.873Z,38.93
2023-04-25T10:47:22.850Z,38.93
2023-04-25T10:48:22.825Z,38.93
2023-04-25T10:49:22.826Z,38.54
2023-04-25T10:50:22.834Z,38.54
2023-04-25T10:51:22.838Z,39.12
2023-04-25T10:52:22.840Z,38.74
2023-04-25T10:53:22.861Z,39.22
2023-04-25T10:54:22.846Z,39.20
2023-04-25T10:55:22.926Z,39.03
2023-04-25T10:56:22.858Z,38.74
2023-04-25T10:57:22.845Z,39.03
2023-04-25T10:58:22.854Z,39.12
2023-04-25T10:59:22.854Z,38.06
2023-04-25T11:00:25.896Z,38.45
2023-04-25T11:01:22.977Z,38.35
2023-04-25T11:02:23.054Z,38.43
2023-04-25T11:03:23.152Z,38.64
2023-04-25T11:04:23.166Z,38.74
2023-04-25T11:05:22.874Z,38.74
2023-04-25T11:06:22.884Z,38.25
2023-04-25T11:07:22.883Z,38.64
2023-04-25T11:08:22.948Z,38.35
2023-04-25T11:09:22.885Z,38.25
2023-04-25T11:10:22.890Z,38.45
2023-04-25T11:11:22.921Z,38.25
2023-04-25T11:12:22.897Z,38.45
2023-04-25T11:13:22.902Z,38.64
2023-04-25T11:14:22.911Z,38.35
2023-04-25T11:15:22.918Z,38.35
2023-04-25T11:16:28.259Z,38.45
2023-04-25T11:17:23.004Z,38.64
2023-04-25T11:18:22.954Z,38.45
2023-04-25T11:19:22.921Z,38.45
2023-04-25T11:20:22.934Z,38.16
2023-04-25T11:21:22.956Z,38.16
2023-04-25T11:22:22.938Z,38.06
2023-04-25T11:23:22.931Z,38.54
2023-04-25T11:24:22.939Z,38.45
2023-04-25T11:25:22.943Z,38.16
2023-04-25T11:26:22.950Z,38.25
2023-04-25T11:27:22.976Z,38.25
2023-04-25T11:28:23.197Z,38.54
2023-04-25T11:29:22.976Z,38.35
2023-04-25T11:30:22.971Z,38.25
2023-04-25T11:31:23.038Z,38.35
2023-04-25T11:32:24.210Z,38.35
2023-04-25T11:33:22.986Z,38.35
2023-04-25T11:34:22.974Z,38.06
2023-04-25T11:35:22.978Z,38.35
2023-04-25T11:36:22.986Z,38.35
2023-04-25T11:37:22.989Z,38.35
2023-04-25T11:38:25.003Z,38.25
2023-04-25T11:39:22.998Z,38.35
2023-04-25T11:40:22.997Z,38.25
2023-04-25T11:41:22.995Z,38.45
2023-04-25T11:42:22.995Z,38.25
2023-04-25T11:43:23.028Z,38.93
2023-04-25T11:44:23.025Z,39.12
2023-04-25T11:45:23.008Z,38.35
2023-04-25T11:46:23.106Z,38.35
2023-04-25T11:47:23.045Z,38.25
2023-04-25T11:48:26.344Z,38.25
2023-04-25T11:49:23.078Z,38.16
2023-04-25T11:50:23.036Z,38.16
2023-04-25T11:51:23.026Z,38.35
2023-04-25T11:52:23.041Z,38.35
2023-04-25T11:53:23.047Z,38.35
2023-04-25T11:54:23.043Z,38.25
2023-04-25T11:55:23.043Z,38.45
2023-04-25T11:56:23.049Z,38.23
2023-04-25T11:57:23.048Z,38.25
2023-04-25T11:58:23.051Z,38.25
2023-04-25T11:59:23.081Z,38.25
2023-04-25T12:00:23.067Z,38.25
2023-04-25T12:01:23.066Z,38.16
2023-04-25T12:02:23.138Z,38.35
2023-04-25T12:03:23.268Z,38.25
2023-04-25T12:04:23.353Z,38.16
2023-04-25T12:06:24.501Z,38.25
2023-04-25T12:07:23.075Z,38.16
2023-04-25T12:08:23.144Z,38.45
2023-04-25T12:09:23.080Z,38.35
2023-04-25T12:10:23.118Z,38.45
2023-04-25T12:11:23.089Z,38.54
2023-04-25T12:12:23.106Z,37.95
2023-04-25T12:13:23.093Z,38.16
2023-04-25T12:14:23.120Z,38.14
2023-04-25T12:15:23.132Z,38.16
2023-04-25T12:16:23.160Z,37.87
2023-04-25T12:17:23.103Z,37.77
2023-04-25T12:18:23.116Z,38.04
2023-04-25T12:19:23.114Z,37.85
2023-04-25T12:20:23.121Z,37.85
2023-04-25T12:21:23.122Z,38.14
2023-04-25T12:22:23.181Z,38.23
2023-04-25T12:23:23.139Z,37.95
2023-04-25T12:24:23.146Z,37.75
2023-04-25T12:25:23.143Z,37.75
2023-04-25T12:26:23.143Z,37.56
2023-04-25T12:27:23.131Z,37.37
2023-04-25T12:28:23.138Z,37.46
2023-04-25T12:29:23.822Z,37.56
2023-04-25T12:30:23.146Z,37.56
2023-04-25T12:31:23.228Z,37.96
2023-04-25T12:32:23.275Z,37.58
2023-04-25T12:33:23.156Z,37.65
2023-04-25T12:34:23.193Z,37.85
2023-04-25T12:35:23.161Z,37.27
2023-04-25T12:36:23.177Z,37.56
2023-04-25T12:37:23.171Z,37.75
2023-04-25T12:38:23.174Z,38.04
2023-04-25T12:39:23.219Z,37.67
2023-04-25T12:40:23.173Z,37.48
2023-04-25T12:41:23.181Z,37.67
2023-04-25T12:42:23.199Z,37.10
2023-04-25T12:43:23.182Z,37.19
2023-04-25T12:44:23.238Z,37.10
2023-04-25T12:45:23.195Z,37.19
2023-04-25T12:46:23.229Z,37.10
2023-04-25T12:47:23.253Z,36.80
2023-04-25T12:48:23.214Z,37.19
2023-04-25T12:49:23.229Z,37.19
2023-04-25T12:50:23.205Z,37.00
2023-04-25T12:51:23.221Z,37.10
2023-04-25T12:52:23.221Z,37.10
2023-04-25T12:53:23.223Z,37.10
2023-04-25T12:54:23.302Z,37.17